Portada
METAR-TAF:

METAR-TAF

Aeroports :

Aeroport de Castelló

Castelló de la Plana, Espanya

latitud: 40-12-35N, longitud: 0-04-11E, altitud: 360 m

Observació

L'informe es va fer fa 41 minuts, a les 17:30 UTC
Vent 8 kt del Nord/Nord-Est, variant entre Nord i Est/Nord-Est
Temperatura 16°C
Humitat 100%
Pressió 1015 hPa
Visibilitat 10 km o més
sense núvols per sota de 1500 mi sense presència de cumulonimbus.

METAR: LECH 191730Z AUTO 03008KT 360V070 CAVOK 16/16 Q1015

Hora: 20:11 (18:11 UTC)


TAF: manca

Observacions i pronòstics meteorològics de més de 4000 aeroports (METAR i TAF).

Les estacions disponibles són els punts grocs i vermells al mapa.

Posi el ratolí al punt desitjat per veure el nom de l'estació.

Feu clic per veure les observacions i els pronòstics meteorològics.

Per canviar el mapa: feu clic els botons verds amb una creu de color negre per apropar; al botó verd amb un guió per allunyar la imatge; o en les fletxes verdes per a mapes adjacents.


METAR-TAF: